DNPO

Port Harcourt International Airport

Port Harcourt, Nigeria
TAF DNPO 182130Z 1900/2006 00000KT 7000 SCT008 TEMPO 1904/1907 5000 BR BECMG 1908/1910 32008KT BKN011
Issued Valid From Valid To
Jan-18 @ 21:30 UTC
(5 hours ago)
Jan-19 @ 00:00 UTC
(2 hours ago)
Jan-20 @ 06:00 UTC
(-1 days ago)
Jan-19 @ 00:00 to Jan-19 @ 08:00
TAF DNPO 182130Z 1900/2006 00000KT 7000 SCT008
Visibility Clouds
7,001 meters
  • Scattered at 800' AGL
Temporary Jan-19 @ 04:00 to Jan-19 @ 07:00
TEMPO 1904/1907 5000 BR
Visibility Conditions
5,005 meters
  • Mist
Becoming Jan-19 @ 08:00 to Jan-20 @ 06:00
BECMG 1908/1910 32008KT BKN011
Wind Visibility Clouds
320° at 8 knots 7,001 meters
  • Broken at 1,100' AGL
TAF DNPO 182130Z 1900/2006 00000KT 7000 SCT008 TEMPO 1904/1907 5000 BR BECMG 1908/1910 32008KT BKN011
Issued Jan-18 @ 21:30 UTC
(5 hours ago)
Valid From Jan-19 @ 00:00 UTC
(2 hours ago)
Valid To Jan-20 @ 06:00 UTC
(-1 days ago)
Jan-19 @ 00:00 - Jan-19 @ 08:00
Clouds
  • Scattered at 800' AGL
Temporary Jan-19 @ 04:00 - Jan-19 @ 07:00
Conditions
  • Mist
Becoming Jan-19 @ 08:00 - Jan-20 @ 06:00
Wind Visibility
320° at 8 knots 7,001 meters
Clouds
  • Broken at 1,100' AGL